Time;durP1;ratioP1;P1;durP2;ratioP2;P2;SDS_P1;SDS_P2;PMS_P1;PMS_P2;Temp;Humidity;BMP_temperature;BMP_pressure;BME280_temperature;BME280_humidity;BME280_pressure;Samples;Min_cycle;Max_cycle;Signal;HPM_P1;HPM_P2
2022/11/04 00:00:26;;;;;;;;;2.00;1.00;;;;;12.49;67.76;99639.16;5072999;28;45834;-78
2022/11/04 00:02:52;;;;;;;;;1.00;1.00;;;;;12.49;67.96;99636.53;5073547;28;46530;-81
2022/11/04 00:05:17;;;;;;;;;1.00;1.00;;;;;12.51;67.92;99645.13;5073000;28;47011;-72
2022/11/04 00:12:23;;;;;;;;;1.00;0.75;;;;;12.45;67.97;99620.25;5073378;28;45799;-79
2022/11/04 00:13:12;;;;;;;;;1.50;0.25;;;;;12.53;67.69;99620.34;5072925;28;46656;-77
2022/11/04 00:18:24;;;;;;;;;1.75;0.75;;;;;12.53;67.87;99616.88;5073011;28;45585;-78
2022/11/04 00:29:07;;;;;;;;;0.25;0.25;;;;;12.56;68.08;99606.09;5076775;28;45658;-78
2022/11/04 00:34:16;;;;;;;;;0.50;0.50;;;;;12.54;68.28;99606.22;5076660;28;46112;-79
2022/11/04 00:36:41;;;;;;;;;1.50;0.00;;;;;12.55;67.98;99604.44;5076621;28;45971;-75
2022/11/04 00:39:07;;;;;;;;;0.50;0.50;;;;;12.54;68.00;99594.88;5076449;28;45827;-78
2022/11/04 00:41:32;;;;;;;;;0.75;0.00;;;;;12.51;68.08;99605.72;5076571;28;45929;-79
2022/11/04 00:44:00;;;;;;;;;2.00;0.50;;;;;12.52;68.31;99592.41;5074800;28;47256;-74
2022/11/04 00:46:27;;;;;;;;;1.00;0.00;;;;;12.50;68.09;99594.38;5057973;28;47302;-75
2022/11/04 00:48:53;;;;;;;;;1.75;0.00;;;;;12.54;68.15;99594.88;5076334;28;45503;-80
2022/11/04 00:51:20;;;;;;;;;2.00;0.00;;;;;12.45;68.21;99586.09;5054673;28;45967;-74
2022/11/04 00:53:45;;;;;;;;;2.00;0.75;;;;;12.47;68.34;99585.97;5054513;28;48707;-76
2022/11/04 00:56:11;;;;;;;;;1.25;0.75;;;;;12.52;68.27;99595.03;5056644;28;46149;-73
2022/11/04 00:58:38;;;;;;;;;0.75;0.25;;;;;12.55;67.93;99591.28;5054711;28;46163;-79
2022/11/04 01:01:11;;;;;;;;;1.00;0.75;;;;;12.56;67.85;99598.22;5056873;28;45682;-77
2022/11/04 01:03:38;;;;;;;;;0.00;0.00;;;;;12.57;68.30;99587.56;5057525;28;45578;-75
2022/11/04 01:06:04;;;;;;;;;2.00;0.50;;;;;12.58;68.32;99577.84;5057104;28;46227;-73
2022/11/04 01:08:29;;;;;;;;;0.25;0.00;;;;;12.54;68.11;99574.69;5058983;28;45847;-75
2022/11/04 01:10:55;;;;;;;;;0.00;0.00;;;;;12.56;67.91;99564.06;5056883;28;45793;-76
2022/11/04 01:13:20;;;;;;;;;2.00;0.00;;;;;12.54;67.93;99555.47;5056528;28;46971;-78
2022/11/04 01:15:48;;;;;;;;;0.50;0.25;;;;;12.60;68.11;99568.03;5057963;28;45532;-80
2022/11/04 01:18:14;;;;;;;;;1.25;0.50;;;;;12.66;68.24;99564.00;5057803;28;45545;-78
2022/11/04 01:20:39;;;;;;;;;0.00;0.00;;;;;12.67;68.31;99568.28;5058196;28;45503;-80
2022/11/04 01:23:14;;;;;;;;;1.25;0.00;;;;;12.69;68.48;99566.31;5055798;28;47695;-79
2022/11/04 01:25:40;;;;;;;;;2.00;0.50;;;;;12.66;68.22;99564.81;5056870;28;46007;-80
2022/11/04 01:28:06;;;;;;;;;1.75;0.00;;;;;12.69;68.41;99566.31;5054566;28;45831;-79
2022/11/04 01:30:32;;;;;;;;;3.00;1.00;;;;;12.68;68.56;99565.50;5056544;28;45519;-80
2022/11/04 01:32:57;;;;;;;;;0.00;0.00;;;;;12.67;68.55;99569.09;5055733;27;45950;-78
2022/11/04 01:35:23;;;;;;;;;1.00;1.00;;;;;12.66;68.56;99562.19;5056002;28;45664;-79
2022/11/04 01:41:36;;;;;;;;;1.00;0.75;;;;;12.62;68.60;99552.97;5056081;28;45686;-77
2022/11/04 01:44:39;;;;;;;;;1.00;0.00;;;;;12.60;68.53;99547.00;5054461;28;46956;-76
2022/11/04 01:47:05;;;;;;;;;1.00;0.00;;;;;12.56;68.45;99557.00;5056069;28;47130;-77
2022/11/04 01:49:38;;;;;;;;;0.25;0.00;;;;;12.55;68.34;99559.78;5055775;28;45483;-78
2022/11/04 01:52:15;;;;;;;;;0.75;0.00;;;;;12.61;68.28;99567.06;5074204;28;45640;-73
2022/11/04 01:54:43;;;;;;;;;0.50;0.00;;;;;12.61;68.04;99553.94;5075954;28;46815;-77
2022/11/04 01:57:12;;;;;;;;;0.00;0.00;;;;;12.53;68.26;99544.16;5075432;28;46641;-79
2022/11/04 01:59:39;;;;;;;;;0.00;0.00;;;;;12.58;68.30;99546.31;5075781;28;45657;-78
2022/11/04 02:02:06;;;;;;;;;1.00;0.00;;;;;12.57;68.04;99548.16;5074629;28;45915;-74
2022/11/04 02:04:36;;;;;;;;;0.25;0.00;;;;;12.51;68.25;99517.22;5075742;28;45708;-78
2022/11/04 02:07:05;;;;;;;;;1.00;0.75;;;;;12.52;68.12;99520.66;5075952;27;45914;-75
2022/11/04 02:09:35;;;;;;;;;2.00;0.00;;;;;12.58;68.21;99538.44;5075536;28;45664;-74
2022/11/04 02:14:47;;;;;;;;;1.50;0.00;;;;;12.58;68.04;99538.44;5075667;28;46070;-73
2022/11/04 02:17:42;;;;;;;;;0.00;0.00;;;;;12.56;68.18;99535.16;5075647;28;47275;-75
2022/11/04 02:20:22;;;;;;;;;1.00;0.00;;;;;12.51;68.03;99503.25;5033132;28;45763;-78
2022/11/04 02:22:57;;;;;;;;;1.00;0.00;;;;;12.55;68.00;99508.06;5033352;28;45536;-73
2022/11/04 02:25:31;;;;;;;;;1.25;1.00;;;;;12.55;67.89;99520.34;5033006;28;46635;-77
2022/11/04 02:28:37;;;;;;;;;1.00;0.00;;;;;12.55;68.48;99515.94;5049531;28;47474;-80
2022/11/04 02:31:41;;;;;;;;;0.50;0.00;;;;;12.54;67.95;99519.53;5032628;28;45662;-78
2022/11/04 02:34:19;;;;;;;;;1.00;1.00;;;;;12.53;68.18;99535.44;5033253;28;45559;-75
2022/11/04 02:40:24;;;;;;;;;1.50;0.00;;;;;12.51;68.24;99532.97;5032721;28;45559;-77
2022/11/04 02:43:34;;;;;;;;;2.25;0.00;;;;;12.53;68.15;99527.56;5032662;28;45725;-75
2022/11/04 02:46:53;;;;;;;;;1.75;1.00;;;;;12.53;68.41;99528.38;4993256;28;45708;-75
2022/11/04 02:49:33;;;;;;;;;0.25;0.00;;;;;12.54;68.26;99529.22;4973455;28;45723;-76
2022/11/04 02:55:38;;;;;;;;;1.00;0.00;;;;;12.51;68.52;99511.13;4973862;28;45831;-75
2022/11/04 02:58:14;;;;;;;;;0.00;0.00;;;;;12.45;68.38;99494.16;4991970;28;45710;-73
2022/11/04 03:00:42;;;;;;;;;2.00;1.00;;;;;12.51;68.59;99505.88;4994587;28;45762;-77
2022/11/04 03:03:21;;;;;;;;;1.00;0.00;;;;;12.53;68.20;99512.63;4994217;28;46151;-77
2022/11/04 03:05:52;;;;;;;;;0.00;0.00;;;;;12.43;68.22;99488.22;4993483;28;45675;-76
2022/11/04 03:11:47;;;;;;;;;0.00;0.00;;;;;12.47;68.54;99486.94;4992641;28;45619;-78
2022/11/04 03:14:18;;;;;;;;;1.00;0.00;;;;;12.12;68.25;99427.31;4992551;28;47120;-75
2022/11/04 03:16:47;;;;;;;;;1.00;0.00;;;;;12.56;68.19;99495.75;4992701;28;45591;-77
2022/11/04 03:19:43;;;;;;;;;0.75;0.50;;;;;12.55;68.69;99489.66;5001953;28;45813;-76
2022/11/04 03:22:19;;;;;;;;;0.75;0.00;;;;;12.54;68.31;99487.16;5065957;28;46396;-73
2022/11/04 03:24:47;;;;;;;;;0.00;0.00;;;;;12.57;68.18;99474.59;5056389;28;46073;-75
2022/11/04 03:27:19;;;;;;;;;2.00;0.00;;;;;12.60;68.20;99481.31;5074388;28;45727;-75
2022/11/04 03:29:59;;;;;;;;;0.25;0.25;;;;;12.60;68.08;99478.69;5074909;28;45810;-79
2022/11/04 03:33:00;;;;;;;;;0.00;0.00;;;;;12.50;68.06;99460.38;5056184;28;47292;-74
2022/11/04 03:35:27;;;;;;;;;0.25;0.00;;;;;12.60;67.89;99465.56;5074284;28;46203;-71
2022/11/04 03:38:11;;;;;;;;;1.00;0.00;;;;;12.59;67.76;99467.34;5073970;28;45656;-78
2022/11/04 03:40:42;;;;;;;;;0.00;0.00;;;;;12.15;67.78;99397.31;5074376;28;45775;-78
2022/11/04 03:43:24;;;;;;;;;0.00;0.00;;;;;12.18;67.81;99415.41;5056212;28;48439;-79
2022/11/04 03:45:50;;;;;;;;;1.75;0.25;;;;;12.57;67.82;99473.75;5074251;28;47171;-72
2022/11/04 03:48:16;;;;;;;;;1.00;0.00;;;;;12.47;67.79;99447.53;5074152;28;45605;-74
2022/11/04 03:50:46;;;;;;;;;0.00;0.00;;;;;12.37;67.99;99428.38;5074581;28;45742;-80
2022/11/04 03:53:16;;;;;;;;;1.00;0.75;;;;;12.51;67.75;99456.78;5074285;27;47018;-80
2022/11/04 03:56:18;;;;;;;;;0.00;0.00;;;;;12.44;67.97;99444.38;5074640;28;46020;-78
2022/11/04 03:59:26;;;;;;;;;0.00;0.00;;;;;12.58;68.01;99470.13;5022679;28;45624;-78
2022/11/04 04:01:59;;;;;;;;;0.00;0.00;;;;;12.35;67.55;99430.34;5074418;28;45796;-71
2022/11/04 04:04:38;;;;;;;;;0.00;0.00;;;;;12.60;67.75;99466.38;5074419;28;45585;-78
2022/11/04 04:10:38;;;;;;;;;1.00;0.00;;;;;12.59;67.93;99493.63;5073817;28;45640;-74
2022/11/04 04:13:28;;;;;;;;;0.00;0.00;;;;;12.59;67.89;99477.88;5074752;28;45537;-72
2022/11/04 04:15:56;;;;;;;;;0.00;0.00;;;;;12.59;68.00;99477.03;5055942;28;47535;-71
2022/11/04 04:18:57;;;;;;;;;0.25;0.25;;;;;12.59;67.80;99469.97;5073977;28;46075;-76
2022/11/04 04:21:30;;;;;;;;;0.00;0.00;;;;;12.60;67.53;99473.44;5066311;28;45911;-76
2022/11/04 04:27:32;;;;;;;;;1.50;0.00;;;;;12.58;67.87;99481.47;5073599;28;46150;-75
2022/11/04 04:30:13;;;;;;;;;0.00;0.00;;;;;12.54;67.52;99480.13;5073858;28;45913;-72
2022/11/04 04:32:44;;;;;;;;;0.00;0.00;;;;;12.55;67.82;99487.03;5073921;28;45600;-74
2022/11/04 04:44:58;;;;;;;;;1.00;0.00;;;;;12.52;67.85;99482.06;5073531;28;45607;-80
2022/11/04 04:46:31;;;;;;;;;0.00;0.00;;;;;12.47;67.78;99475.63;5073619;28;45724;-77
2022/11/04 04:49:06;;;;;;;;;0.00;0.00;;;;;12.42;67.36;99467.34;5055214;28;46567;-76
2022/11/04 04:51:34;;;;;;;;;0.00;0.00;;;;;12.49;67.37;99484.16;5073099;28;47358;-77
2022/11/04 04:54:00;;;;;;;;;0.00;0.00;;;;;12.48;67.39;99493.84;5073640;28;45663;-73
2022/11/04 04:56:25;;;;;;;;;0.00;0.00;;;;;12.35;67.69;99461.88;5073841;28;45605;-74
2022/11/04 04:58:50;;;;;;;;;0.00;0.00;;;;;12.37;67.34;99480.94;5073104;28;47245;-72
2022/11/04 05:01:17;;;;;;;;;0.00;0.00;;;;;12.38;67.60;99484.38;5072993;28;45581;-75
2022/11/04 05:03:42;;;;;;;;;0.00;0.00;;;;;12.41;67.55;99490.19;5073034;28;45514;-74
2022/11/04 05:06:07;;;;;;;;;0.00;0.00;;;;;12.40;67.30;99487.69;5073645;28;45791;-75
2022/11/04 05:08:34;;;;;;;;;0.00;0.00;;;;;12.26;67.60;99456.66;5074090;28;45562;-74
2022/11/04 05:10:59;;;;;;;;;0.00;0.00;;;;;12.37;67.76;99480.94;5078219;28;46920;-76
2022/11/04 05:13:25;;;;;;;;;0.00;0.00;;;;;12.35;67.73;99484.69;5079138;28;45881;-76
2022/11/04 05:15:53;;;;;;;;;0.00;0.00;;;;;12.33;67.39;99476.94;5078039;28;45619;-75
2022/11/04 05:18:19;;;;;;;;;0.50;0.00;;;;;12.33;67.73;99478.75;5077578;28;45600;-76
2022/11/04 05:20:44;;;;;;;;;0.00;0.00;;;;;12.35;67.50;99482.88;5076324;28;48047;-75
2022/11/04 05:23:12;;;;;;;;;1.00;0.00;;;;;12.20;67.71;99472.03;5058493;28;46176;-78
2022/11/04 05:25:38;;;;;;;;;1.00;0.00;;;;;12.33;67.64;99491.88;5077126;28;45490;-76
2022/11/04 05:28:07;;;;;;;;;0.00;0.00;;;;;12.34;67.65;99498.78;5076314;28;47547;-79
2022/11/04 05:30:33;;;;;;;;;1.00;0.00;;;;;12.35;67.78;99493.41;5058087;28;48191;-72
2022/11/04 05:32:59;;;;;;;;;1.25;0.00;;;;;12.34;67.66;99485.66;5076297;28;45801;-73
2022/11/04 05:35:24;;;;;;;;;0.00;0.00;;;;;12.31;67.51;99481.50;5076759;28;45721;-72
2022/11/04 05:37:49;;;;;;;;;0.00;0.00;;;;;12.27;67.48;99477.53;5076093;28;46415;-73
2022/11/04 05:43:37;;;;;;;;;1.00;0.00;;;;;12.36;67.54;99504.72;5076569;28;45582;-80
2022/11/04 05:46:03;;;;;;;;;0.00;0.00;;;;;12.34;67.84;99491.75;5076561;28;45602;-81
2022/11/04 05:48:31;;;;;;;;;2.00;0.00;;;;;12.37;67.75;99503.72;5076288;28;45625;-75
2022/11/04 05:50:56;;;;;;;;;0.00;0.00;;;;;12.34;67.73;99504.88;5075854;28;46372;-76
2022/11/04 05:53:21;;;;;;;;;1.00;0.00;;;;;12.39;67.53;99517.56;5075964;28;45466;-76
2022/11/04 05:59:11;;;;;;;;;0.00;0.00;;;;;12.38;67.84;99529.84;5075928;28;45944;-76
2022/11/04 06:01:41;;;;;;;;;0.00;0.00;;;;;12.35;67.50;99521.47;5075866;28;45939;-76
2022/11/04 06:04:13;;;;;;;;;0.75;0.00;;;;;12.37;67.78;99528.19;5076162;28;45749;-77
2022/11/04 06:06:41;;;;;;;;;1.00;0.00;;;;;12.36;67.50;99531.00;5075167;28;45858;-78
2022/11/04 06:09:10;;;;;;;;;0.00;0.00;;;;;12.33;67.58;99534.72;5057576;28;47792;-78
2022/11/04 06:11:47;;;;;;;;;0.00;0.00;;;;;12.35;67.57;99538.03;5057261;28;48135;-80
2022/11/04 06:14:12;;;;;;;;;0.00;0.00;;;;;12.29;67.68;99527.28;5075783;28;45712;-75
2022/11/04 06:16:38;;;;;;;;;0.00;0.00;;;;;12.35;67.55;99534.59;5076005;28;45698;-73
2022/11/04 06:19:03;;;;;;;;;0.75;0.00;;;;;12.30;67.66;99545.53;5075656;28;45502;-74
2022/11/04 06:21:30;;;;;;;;;2.00;0.00;;;;;12.29;67.59;99545.69;5075655;28;45555;-74
2022/11/04 06:23:57;;;;;;;;;0.00;0.00;;;;;12.35;67.38;99560.84;5075599;28;45726;-73
2022/11/04 06:26:24;;;;;;;;;1.00;0.00;;;;;12.35;67.93;99553.81;5074041;28;46055;-73
2022/11/04 06:28:50;;;;;;;;;2.25;1.50;;;;;12.25;67.71;99537.28;5057038;28;46661;-77
2022/11/04 06:31:16;;;;;;;;;1.75;0.00;;;;;12.33;67.68;99553.13;5075626;28;45550;-76
2022/11/04 06:33:42;;;;;;;;;0.00;0.00;;;;;12.33;67.70;99552.28;5075734;28;45669;-71
2022/11/04 06:36:11;;;;;;;;;0.00;0.00;;;;;12.34;67.55;99552.16;5075709;28;45641;-73
2022/11/04 06:38:37;;;;;;;;;0.75;0.00;;;;;12.35;67.40;99555.59;5075664;28;45587;-73
2022/11/04 06:44:23;;;;;;;;;0.00;0.00;;;;;12.33;67.54;99554.91;5075441;28;45698;-75
2022/11/04 06:46:49;;;;;;;;;0.00;0.00;;;;;12.35;67.65;99553.81;5057326;28;45526;-73
2022/11/04 06:49:17;;;;;;;;;0.00;0.00;;;;;12.25;67.70;99533.81;5075052;28;46979;-74
2022/11/04 06:51:43;;;;;;;;;0.00;0.00;;;;;12.28;67.62;99546.63;5074348;28;45582;-79
2022/11/04 06:54:09;;;;;;;;;1.75;0.00;;;;;12.32;67.68;99555.88;5075449;28;45611;-75
2022/11/04 06:56:35;;;;;;;;;0.00;0.00;;;;;12.32;67.70;99561.97;5075526;28;45743;-76
2022/11/04 06:59:01;;;;;;;;;0.00;0.00;;;;;12.22;67.58;99548.06;5056413;28;47912;-77
2022/11/04 07:01:29;;;;;;;;;0.00;0.00;;;;;12.32;67.30;99567.22;5074848;28;46145;-75
2022/11/04 07:03:57;;;;;;;;;1.00;0.00;;;;;12.35;67.67;99574.00;5074887;28;45681;-75
2022/11/04 07:06:23;;;;;;;;;1.00;1.00;;;;;12.25;67.70;99555.66;5074944;28;45589;-74
2022/11/04 07:08:50;;;;;;;;;1.00;0.00;;;;;12.34;67.60;99578.41;5074485;28;46606;-76
2022/11/04 07:14:38;;;;;;;;;0.00;0.00;;;;;12.34;67.88;99581.03;5075118;28;45743;-77
2022/11/04 07:17:04;;;;;;;;;0.00;0.00;;;;;12.35;67.58;99593.19;5074442;28;45672;-75
2022/11/04 07:19:29;;;;;;;;;0.00;0.00;;;;;12.35;67.63;99589.75;5056741;28;48843;-73
2022/11/04 07:21:54;;;;;;;;;0.00;0.00;;;;;12.34;67.51;99588.09;5074976;28;45651;-75
2022/11/04 07:24:20;;;;;;;;;0.50;0.00;;;;;12.39;67.74;99604.25;5075063;28;45671;-76
2022/11/04 07:26:48;;;;;;;;;1.00;0.00;;;;;12.41;67.45;99607.56;5056938;28;45533;-79
2022/11/04 07:29:13;;;;;;;;;1.25;0.00;;;;;12.41;67.49;99607.56;5056497;28;45688;-81
2022/11/04 07:31:42;;;;;;;;;1.00;0.00;;;;;12.40;67.59;99614.59;5073798;28;46291;-82
2022/11/04 07:34:08;;;;;;;;;1.00;0.00;;;;;12.37;67.37;99619.31;5074956;28;45624;-81
2022/11/04 07:36:33;;;;;;;;;1.00;0.00;;;;;12.39;67.65;99622.63;5075020;27;47045;-83
2022/11/04 07:38:59;;;;;;;;;0.00;0.00;;;;;12.38;67.46;99626.22;5074848;28;46303;-82
2022/11/04 07:41:26;;;;;;;;;1.00;0.00;;;;;12.35;67.57;99627.34;5074694;28;46221;-80
2022/11/04 07:43:52;;;;;;;;;0.00;0.00;;;;;12.35;67.30;99639.66;5076816;28;45697;-80
2022/11/04 07:46:18;;;;;;;;;0.50;0.00;;;;;12.30;67.33;99634.84;5077570;28;45644;-80
2022/11/04 07:48:47;;;;;;;;;0.75;0.00;;;;;12.29;67.75;99632.34;5076799;28;47277;-81
2022/11/04 07:51:16;;;;;;;;;1.25;0.00;;;;;12.33;67.81;99649.47;5077453;28;46536;-81
2022/11/04 07:53:43;;;;;;;;;0.75;0.00;;;;;12.25;67.38;99638.84;5078014;28;45553;-82
2022/11/04 07:56:11;;;;;;;;;0.00;0.00;;;;;12.27;67.29;99647.41;5075543;28;45759;-82
2022/11/04 07:58:36;;;;;;;;;0.00;0.00;;;;;12.31;67.44;99662.72;5074930;28;49038;-80
2022/11/04 08:01:12;;;;;;;;;1.00;0.00;;;;;12.32;67.58;99663.56;5074377;28;47284;-82
2022/11/04 08:03:37;;;;;;;;;0.00;0.00;;;;;12.16;67.51;99643.97;5056668;28;45920;-81
2022/11/04 08:06:05;;;;;;;;;0.00;0.00;;;;;12.28;67.60;99672.69;5075270;28;45636;-79
2022/11/04 08:08:30;;;;;;;;;0.00;0.00;;;;;12.28;67.30;99672.69;5073767;28;46706;-80
2022/11/04 08:10:59;;;;;;;;;1.00;0.00;;;;;12.25;67.35;99679.09;5074350;28;47300;-80
2022/11/04 08:13:29;;;;;;;;;1.00;0.00;;;;;12.25;67.31;99683.50;5074279;28;45558;-79
2022/11/04 08:15:55;;;;;;;;;0.00;0.00;;;;;12.17;67.17;99676.31;5074664;28;45890;-79
2022/11/04 08:18:21;;;;;;;;;2.25;0.00;;;;;12.22;67.13;99692.47;5074403;28;47216;-80
2022/11/04 08:20:50;;;;;;;;;0.50;0.00;;;;;12.31;67.24;99698.69;5074073;28;47060;-81
2022/11/04 08:23:16;;;;;;;;;0.00;0.00;;;;;12.23;67.38;99695.94;5074657;28;45823;-80
2022/11/04 08:25:42;;;;;;;;;0.00;0.00;;;;;12.14;67.09;99679.25;5074190;28;45594;-82
2022/11/04 08:28:09;;;;;;;;;0.50;0.00;;;;;12.24;67.65;99692.34;5074004;28;47473;-79
2022/11/04 08:30:34;;;;;;;;;0.00;0.00;;;;;12.24;67.25;99700.22;5074373;28;46175;-78
2022/11/04 08:33:00;;;;;;;;;1.00;0.00;;;;;12.18;67.14;99691.94;5074242;28;45687;-82
2022/11/04 08:35:25;;;;;;;;;0.00;0.00;;;;;12.22;67.17;99705.59;5074421;28;45479;-78
2022/11/04 08:37:51;;;;;;;;;0.00;0.00;;;;;12.23;67.29;99709.06;5073923;28;46283;-77
2022/11/04 08:40:16;;;;;;;;;0.50;0.00;;;;;12.24;66.78;99723.88;5073869;28;46309;-77
2022/11/04 08:42:43;;;;;;;;;0.50;0.00;;;;;12.23;66.46;99716.94;5074860;28;45623;-80
2022/11/04 08:45:08;;;;;;;;;0.50;0.00;;;;;12.13;66.40;99716.97;5077556;28;45631;-83
2022/11/04 08:47:33;;;;;;;;;0.00;0.00;;;;;12.24;66.42;99729.13;5077835;28;45528;-81
2022/11/04 08:49:59;;;;;;;;;0.00;0.00;;;;;12.28;66.08;99736.56;5077603;28;45605;-79
2022/11/04 08:52:24;;;;;;;;;0.00;0.00;;;;;12.31;65.99;99741.53;5076298;27;45511;-80
2022/11/04 08:54:53;;;;;;;;;0.00;0.00;;;;;12.27;65.54;99745.41;5077802;28;45506;-79
2022/11/04 09:00:40;;;;;;;;;1.00;0.00;;;;;12.25;65.27;99752.63;5076927;28;45667;-80
2022/11/04 09:03:06;;;;;;;;;0.00;0.00;;;;;12.28;65.40;99757.56;5077215;28;45776;-82
2022/11/04 09:05:32;;;;;;;;;0.50;0.00;;;;;12.36;65.32;99767.38;5077844;28;45556;-81
2022/11/04 09:07:59;;;;;;;;;0.00;0.00;;;;;12.34;65.17;99769.31;5077165;28;46475;-80
2022/11/04 09:10:25;;;;;;;;;1.00;0.00;;;;;12.40;65.04;99774.84;5076692;28;46056;-79
2022/11/04 09:12:52;;;;;;;;;0.75;0.00;;;;;12.49;64.90;99781.88;5076849;28;45858;-80
2022/11/04 09:15:17;;;;;;;;;1.00;0.00;;;;;12.35;64.91;99766.56;5076934;28;45790;-82
2022/11/04 09:17:43;;;;;;;;;0.00;0.00;;;;;12.51;65.00;99793.06;5076582;28;46339;-79
2022/11/04 09:20:09;;;;;;;;;0.00;0.00;;;;;12.48;65.24;99793.34;5076896;28;46391;-80
2022/11/04 09:22:34;;;;;;;;;0.00;0.00;;;;;12.52;65.41;99799.16;5077034;28;45590;-79
2022/11/04 09:25:00;;;;;;;;;1.25;0.00;;;;;12.53;65.38;99804.25;5077094;28;45687;-77
2022/11/04 09:30:47;;;;;;;;;1.00;0.00;;;;;12.54;65.31;99803.28;5076502;28;45988;-78
2022/11/04 09:33:12;;;;;;;;;0.25;0.00;;;;;12.61;65.21;99807.03;5076561;28;45535;-78
2022/11/04 09:35:38;;;;;;;;;1.25;0.00;;;;;12.61;65.11;99808.81;5078006;28;45841;-78
2022/11/04 09:38:03;;;;;;;;;1.00;0.00;;;;;12.61;65.08;99825.41;5078302;28;47592;-79
2022/11/04 09:47:01;;;;;;;;;0.00;0.00;;;;;12.68;65.37;99838.00;5076973;28;45622;-75
2022/11/04 09:49:35;;;;;;;;;0.00;0.00;;;;;12.66;65.13;99838.13;5076643;28;46468;-79
2022/11/04 09:52:05;;;;;;;;;0.00;0.00;;;;;12.67;65.14;99860.81;5076141;28;46482;-77
2022/11/04 09:55:23;;;;;;;;;1.00;0.00;;;;;12.64;64.89;99847.94;5077066;28;45513;-79
2022/11/04 09:57:54;;;;;;;;;0.00;0.00;;;;;12.52;64.97;99852.50;4975310;28;45787;-82
2022/11/04 10:00:20;;;;;;;;;0.00;0.00;;;;;12.58;65.22;99867.72;4974668;28;46292;-80
2022/11/04 10:02:48;;;;;;;;;1.25;0.00;;;;;12.56;65.04;99876.72;4974939;28;46488;-80
2022/11/04 10:05:28;;;;;;;;;0.50;0.50;;;;;12.53;65.71;99877.81;4974269;28;45687;-84
2022/11/04 10:08:01;;;;;;;;;0.75;0.75;;;;;12.55;65.47;99883.78;4974399;28;45868;-80
2022/11/04 10:10:41;;;;;;;;;1.50;0.00;;;;;12.56;64.82;99898.59;4973881;28;47565;-79
2022/11/04 10:13:17;;;;;;;;;0.00;0.00;;;;;12.54;64.76;99894.41;4974058;28;45937;-83
2022/11/04 10:16:01;;;;;;;;;0.00;0.00;;;;;12.51;64.81;99913.94;4974149;28;45573;-82
2022/11/04 10:18:48;;;;;;;;;0.25;0.25;;;;;12.50;64.51;99909.66;4974431;28;45810;-78
2022/11/04 10:21:43;;;;;;;;;2.00;0.25;;;;;12.50;64.33;99933.28;4973849;28;47425;-82
2022/11/04 10:24:15;;;;;;;;;1.00;0.00;;;;;12.48;64.38;99926.50;4973997;28;47367;-81
2022/11/04 10:30:22;;;;;;;;;0.75;0.75;;;;;12.46;64.85;99933.72;4974100;28;45798;-81
2022/11/04 10:32:55;;;;;;;;;0.75;0.00;;;;;12.52;64.26;99938.41;4973932;28;47490;-81
2022/11/04 10:35:24;;;;;;;;;1.00;0.00;;;;;12.54;64.38;99955.69;5070504;28;46251;-79
2022/11/04 10:37:52;;;;;;;;;0.00;0.00;;;;;12.42;64.21;99933.13;5057160;28;45723;-81
2022/11/04 10:40:28;;;;;;;;;1.00;0.00;;;;;12.51;64.68;99969.13;5075785;28;45554;-79
2022/11/04 10:46:40;;;;;;;;;1.50;1.00;;;;;12.54;63.78;99981.97;5075410;28;46075;-81
2022/11/04 10:49:27;;;;;;;;;0.00;0.00;;;;;12.57;64.03;99979.06;5075448;28;45608;-79
2022/11/04 10:51:54;;;;;;;;;0.00;0.00;;;;;12.62;63.64;99981.28;5075389;28;45711;-81
2022/11/04 10:54:20;;;;;;;;;0.00;0.00;;;;;12.67;63.44;99989.59;5073971;28;47890;-80
2022/11/04 10:56:51;;;;;;;;;1.25;0.00;;;;;12.69;63.54;99982.38;5075064;28;47118;-82
2022/11/04 10:59:25;;;;;;;;;3.00;2.00;;;;;12.76;63.67;99985.28;5073962;28;45717;-79
2022/11/04 11:01:53;;;;;;;;;0.00;0.00;;;;;12.81;63.61;99988.34;5075351;28;45608;-83
2022/11/04 11:04:28;;;;;;;;;0.75;0.50;;;;;12.87;62.97;99982.53;5075085;28;47808;-82
2022/11/04 11:06:56;;;;;;;;;1.00;1.00;;;;;12.95;63.24;100022.94;5073923;28;46005;-80
2022/11/04 11:09:28;;;;;;;;;0.00;0.00;;;;;12.94;62.32;100002.03;5074947;28;45483;-82
2022/11/04 11:11:59;;;;;;;;;1.00;1.00;;;;;13.02;62.66;100007.44;5073693;28;46134;-81
2022/11/04 11:14:28;;;;;;;;;1.00;1.00;;;;;13.08;62.36;100000.78;5074741;28;46390;-76
2022/11/04 11:17:16;;;;;;;;;0.25;0.00;;;;;13.14;62.20;100013.41;5074874;28;46502;-77
2022/11/04 11:19:59;;;;;;;;;1.25;0.00;;;;;13.16;61.40;100025.47;5074663;28;45720;-80
2022/11/04 11:22:40;;;;;;;;;1.00;1.00;;;;;13.18;61.39;100026.13;5075161;28;45634;-78
2022/11/04 11:25:28;;;;;;;;;0.75;0.00;;;;;13.23;61.11;100017.81;5074739;28;45629;-79
2022/11/04 11:28:00;;;;;;;;;0.00;0.00;;;;;13.27;61.28;100022.69;5074306;28;45946;-79
2022/11/04 11:30:42;;;;;;;;;1.75;1.75;;;;;13.31;61.12;100021.41;5074522;28;45671;-78
2022/11/04 11:33:46;;;;;;;;;1.00;1.00;;;;;13.39;61.32;100028.59;5056686;28;45638;-79
2022/11/04 11:36:22;;;;;;;;;1.00;1.00;;;;;13.45;61.48;100035.94;5067959;28;46292;-82
2022/11/04 11:39:20;;;;;;;;;0.50;0.00;;;;;13.47;60.91;100041.88;5074474;28;45769;-77
2022/11/04 11:45:15;;;;;;;;;0.50;0.00;;;;;13.42;61.12;100062.53;5074820;28;45551;-77
2022/11/04 11:47:42;;;;;;;;;3.00;2.00;;;;;13.38;61.68;100067.25;5074729;28;46953;-79
2022/11/04 11:50:19;;;;;;;;;1.00;0.25;;;;;13.18;62.00;100030.56;5075292;28;45741;-76
2022/11/04 11:52:47;;;;;;;;;1.00;1.00;;;;;13.26;62.16;100059.63;5075223;28;45609;-77
2022/11/04 11:55:38;;;;;;;;;1.00;0.00;;;;;13.32;62.49;100077.50;5074750;28;45640;-77
2022/11/04 12:01:39;;;;;;;;;0.00;0.00;;;;;13.34;62.77;100101.84;5074041;28;45981;-77
2022/11/04 12:04:04;;;;;;;;;0.00;0.00;;;;;13.33;62.23;100093.13;5056100;28;45714;-78
2022/11/04 12:06:41;;;;;;;;;0.25;0.25;;;;;13.32;62.45;100096.75;5074036;28;45610;-82
2022/11/04 12:09:07;;;;;;;;;1.00;0.25;;;;;13.33;62.16;100100.22;5074252;28;45640;-82
2022/11/04 12:18:00;;;;;;;;;1.50;1.50;;;;;13.35;62.79;100120.16;5075356;28;45700;-82
2022/11/04 12:20:55;;;;;;;;;1.00;0.50;;;;;13.33;62.27;100105.47;5077890;28;45575;-79
2022/11/04 12:23:23;;;;;;;;;1.75;1.50;;;;;13.40;62.07;100128.44;5059380;28;47533;-81
2022/11/04 12:26:23;;;;;;;;;1.50;0.75;;;;;13.43;62.14;100136.09;5059169;28;45830;-80
2022/11/04 12:29:17;;;;;;;;;1.00;1.00;;;;;13.46;61.71;100156.00;5077333;28;45613;-78
2022/11/04 12:32:03;;;;;;;;;1.25;1.00;;;;;13.48;61.82;100140.94;5035156;28;47322;-80
2022/11/04 12:34:58;;;;;;;;;2.00;1.75;;;;;13.54;61.74;100160.59;5034804;28;48188;-79
2022/11/04 12:37:53;;;;;;;;;2.00;2.00;;;;;13.61;61.44;100153.78;5034747;28;46325;-78
2022/11/04 12:40:34;;;;;;;;;2.50;1.00;;;;;13.62;60.74;100173.88;5035035;28;45876;-80
2022/11/04 12:46:44;;;;;;;;;1.25;1.25;;;;;13.65;59.89;100190.25;5034685;28;46178;-74
2022/11/04 12:49:22;;;;;;;;;1.00;1.00;;;;;13.66;59.84;100172.63;5017796;28;45924;-78
2022/11/04 12:51:53;;;;;;;;;1.00;1.00;;;;;13.67;60.00;100184.81;5034719;28;45949;-78
2022/11/04 12:54:27;;;;;;;;;1.00;1.00;;;;;13.68;59.64;100197.84;5034895;28;45808;-80
2022/11/04 13:03:49;;;;;;;;;2.00;1.00;;;;;13.73;60.30;100190.38;5034690;28;45669;-76
2022/11/04 13:06:30;;;;;;;;;1.00;1.00;;;;;13.84;59.80;100223.63;5034444;28;47741;-79
2022/11/04 13:09:04;;;;;;;;;1.00;1.00;;;;;13.86;60.11;100203.25;5059992;28;46047;-76
2022/11/04 13:11:44;;;;;;;;;2.00;2.00;;;;;13.68;61.40;100165.44;5076878;28;45945;-81
2022/11/04 13:14:28;;;;;;;;;1.00;1.00;;;;;14.03;62.06;100230.69;5058946;28;45616;-80
2022/11/04 13:16:59;;;;;;;;;1.00;1.00;;;;;13.95;65.39;100259.50;5058487;28;47827;-82
2022/11/04 13:19:28;;;;;;;;;1.25;0.00;;;;;13.75;66.52;100253.44;5076632;28;45906;-79
2022/11/04 13:21:57;;;;;;;;;0.00;0.00;;;;;13.45;68.34;100249.91;5076670;28;45557;-82
2022/11/04 13:24:22;;;;;;;;;1.00;1.00;;;;;13.27;67.31;100262.09;5059023;28;45869;-77
2022/11/04 13:26:50;;;;;;;;;0.00;0.00;;;;;13.10;67.80;100278.47;5076939;28;45594;-78
2022/11/04 13:29:20;;;;;;;;;1.00;1.00;;;;;12.99;67.78;100283.81;5075575;28;46282;-80
2022/11/04 13:31:56;;;;;;;;;1.00;0.00;;;;;12.93;69.83;100298.34;5076994;28;45531;-77
2022/11/04 13:34:39;;;;;;;;;1.50;0.00;;;;;12.75;70.24;100305.16;5076965;28;45690;-83
2022/11/04 13:37:13;;;;;;;;;1.00;1.00;;;;;12.66;71.06;100303.31;5076785;28;45552;-78
2022/11/04 13:39:47;;;;;;;;;1.25;1.25;;;;;12.58;71.44;100296.06;5076865;28;45819;-80